LCLK/LCA METAR and TAF weather

Enter ICAO airport designator
Station Type Date Time Source
LCLK METAR 2020/01/19 00:30 UTC NOAA

LCLK 190030Z 32005KT 9999 BKN027 SCT050 10/08 Q1014 NOSIG


Station Type Date Time Source
LCLK Decoded METAR 2020/01/19 00:30 UTC NOAA

Larnaca Airport, Cyprus (LCLK) 34-53N 033-38E 2M
Jan 18, 2020 - 07:30 PM EST / 2020.01.19 0030 UTC
Wind: from the NW (320 degrees) at 6 MPH (5 KT):0
Visibility: greater than 7 mile(s):0
Sky conditions: mostly cloudy
Temperature: 50 F (10 C)
Dew Point: 46 F (8 C)
Relative Humidity: 87%
Pressure (altimeter): 29.94 in. Hg (1014 hPa)
ob: LCLK 190030Z 32005KT 9999 BKN027 SCT050 10/08 Q1014 NOSIG
cycle: 0

Station Type Date Time Source
LCLK TAF 2020/01/18 18:35 UTC NOAA

TAF LCLK 181730Z 1818/1918 33006KT 9999 SCT030 PROB40
TEMPO 1818/1918 5000 SHRA PROB30
TEMPO 1818/1912 3000 TSRA SCT020CB
BECMG 1910/1912 04012KT

Example: see airport list